createdAt,value
2023-04-05T00:01:28.777Z,1.64
2023-04-05T00:03:58.143Z,1.59
2023-04-05T00:06:29.096Z,1.59
2023-04-05T00:08:59.498Z,1.59
2023-04-05T00:11:27.366Z,1.55
2023-04-05T00:13:53.785Z,1.54
2023-04-05T00:16:20.482Z,1.52
2023-04-05T00:18:51.480Z,1.46
2023-04-05T00:21:22.615Z,1.38
2023-04-05T00:23:51.159Z,1.39
2023-04-05T00:26:18.260Z,1.42
2023-04-05T00:28:48.800Z,1.40
2023-04-05T00:31:15.579Z,1.37
2023-04-05T00:33:42.089Z,1.31
2023-04-05T00:36:19.684Z,1.29
2023-04-05T00:38:47.737Z,1.20
2023-04-05T00:41:14.368Z,1.17
2023-04-05T00:43:41.598Z,1.12
2023-04-05T00:46:08.704Z,1.04
2023-04-05T00:48:36.230Z,1.08
2023-04-05T00:51:03.014Z,1.03
2023-04-05T00:53:29.507Z,0.91
2023-04-05T00:55:57.283Z,0.94
2023-04-05T00:58:23.906Z,0.89
2023-04-05T01:01:06.538Z,0.86
2023-04-05T01:03:35.319Z,0.87
2023-04-05T01:06:24.894Z,0.84
2023-04-05T01:09:17.764Z,0.83
2023-04-05T01:11:47.202Z,0.81
2023-04-05T01:14:14.044Z,0.76
2023-04-05T01:16:40.606Z,0.79
2023-04-05T01:19:13.333Z,0.80
2023-04-05T01:22:14.228Z,0.79
2023-04-05T01:25:19.686Z,0.74
2023-04-05T01:27:58.247Z,0.71
2023-04-05T01:30:39.954Z,0.66
2023-04-05T01:33:30.388Z,0.54
2023-04-05T01:36:22.652Z,0.44
2023-04-05T01:38:51.157Z,0.41
2023-04-05T01:41:17.865Z,0.37
2023-04-05T01:43:46.866Z,0.42
2023-04-05T01:46:13.391Z,0.41
2023-04-05T01:48:40.276Z,0.44
2023-04-05T01:51:06.953Z,0.39
2023-04-05T01:53:33.922Z,0.32
2023-04-05T01:56:01.571Z,0.33
2023-04-05T01:58:28.942Z,0.33
2023-04-05T02:00:56.413Z,0.31
2023-04-05T02:03:24.587Z,0.28
2023-04-05T02:05:52.627Z,0.21
2023-04-05T02:08:19.174Z,0.20
2023-04-05T02:10:48.368Z,0.18
2023-04-05T02:18:47.809Z,0.14
2023-04-05T02:21:17.181Z,0.11
2023-04-05T02:23:44.050Z,0.02
2023-04-05T02:26:10.811Z,-0.01
2023-04-05T02:28:37.292Z,0.01
2023-04-05T02:31:08.958Z,-0.03
2023-04-05T02:33:35.541Z,-0.02
2023-04-05T02:36:09.315Z,0.02
2023-04-05T02:38:36.238Z,-0.03
2023-04-05T02:41:03.043Z,0.00
2023-04-05T02:43:30.627Z,0.00
2023-04-05T02:45:57.053Z,-0.09
2023-04-05T02:48:23.599Z,-0.07
2023-04-05T02:50:51.815Z,-0.01
2023-04-05T02:53:18.929Z,-0.06
2023-04-05T02:55:53.926Z,-0.04
2023-04-05T02:58:20.725Z,-0.06
2023-04-05T03:00:52.814Z,-0.06
2023-04-05T03:03:26.262Z,-0.11
2023-04-05T03:06:00.381Z,-0.11
2023-04-05T03:08:30.156Z,-0.16
2023-04-05T03:11:01.855Z,-0.20
2023-04-05T03:13:28.322Z,-0.15
2023-04-05T03:15:56.395Z,-0.13
2023-04-05T03:18:26.652Z,-0.16
2023-04-05T03:20:58.769Z,-0.20
2023-04-05T03:23:27.371Z,-0.17
2023-04-05T03:25:57.977Z,-0.16
2023-04-05T03:28:29.167Z,-0.17
2023-04-05T03:31:01.221Z,-0.21
2023-04-05T03:33:27.774Z,-0.16
2023-04-05T03:35:54.379Z,-0.14
2023-04-05T03:38:21.621Z,-0.13
2023-04-05T03:41:06.784Z,-0.21
2023-04-05T03:43:34.631Z,-0.23
2023-04-05T03:46:01.876Z,-0.26
2023-04-05T03:48:29.691Z,-0.26
2023-04-05T03:50:56.243Z,-0.28
2023-04-05T03:53:23.408Z,-0.15
2023-04-05T03:55:54.215Z,-0.09
2023-04-05T03:58:27.755Z,-0.07
2023-04-05T04:00:56.749Z,0.03
2023-04-05T04:03:25.985Z,0.12
2023-04-05T04:05:52.636Z,0.19
2023-04-05T04:08:20.135Z,0.36
2023-04-05T04:10:46.711Z,0.36
2023-04-05T04:13:24.751Z,0.35
2023-04-05T04:16:11.492Z,0.32
2023-04-05T04:19:06.964Z,0.14
2023-04-05T04:21:39.436Z,0.03
2023-04-05T04:24:32.606Z,-0.22
2023-04-05T04:26:59.028Z,-0.17
2023-04-05T04:29:46.781Z,-0.15
2023-04-05T04:32:50.339Z,-0.16
2023-04-05T04:35:38.922Z,-0.12
2023-04-05T04:38:28.655Z,0.01
2023-04-05T04:41:34.004Z,-0.02
2023-04-05T04:44:14.823Z,0.05
2023-04-05T04:46:59.968Z,0.09
2023-04-05T04:49:41.628Z,0.07
2023-04-05T04:52:08.183Z,0.11
2023-04-05T04:54:37.183Z,0.17
2023-04-05T04:57:03.635Z,0.22
2023-04-05T04:59:30.385Z,0.21
2023-04-05T05:01:56.850Z,0.28
2023-04-05T05:04:23.557Z,0.44
2023-04-05T05:06:54.161Z,0.44
2023-04-05T05:09:20.736Z,0.47
2023-04-05T05:11:53.693Z,0.26
2023-04-05T05:14:20.410Z,0.21
2023-04-05T05:16:47.015Z,0.14
2023-04-05T05:19:13.464Z,0.18
2023-04-05T05:21:50.101Z,0.22
2023-04-05T05:24:16.558Z,0.28
2023-04-05T05:26:43.011Z,0.34
2023-04-05T05:29:09.670Z,0.52
2023-04-05T05:31:39.537Z,0.44
2023-04-05T05:34:06.643Z,0.38
2023-04-05T05:36:33.457Z,0.44
2023-04-05T05:39:00.006Z,0.40
2023-04-05T05:41:26.470Z,0.44
2023-04-05T05:43:53.733Z,0.42
2023-04-05T05:46:21.296Z,0.57
2023-04-05T05:48:47.808Z,0.58
2023-04-05T05:51:14.192Z,0.56
2023-04-05T05:53:41.020Z,0.47
2023-04-05T05:56:07.617Z,0.49
2023-04-05T05:58:34.036Z,0.50
2023-04-05T06:01:03.595Z,0.52
2023-04-05T06:03:30.440Z,0.56
2023-04-05T06:05:58.088Z,0.66
2023-04-05T06:08:25.133Z,0.83
2023-04-05T06:10:52.552Z,0.92
2023-04-05T06:13:19.506Z,0.91
2023-04-05T06:15:47.747Z,1.02
2023-04-05T06:18:14.516Z,1.21
2023-04-05T06:20:43.079Z,1.21
2023-04-05T06:23:13.179Z,1.28
2023-04-05T06:25:40.859Z,1.33
2023-04-05T06:28:07.496Z,1.42
2023-04-05T06:30:34.324Z,1.49
2023-04-05T06:33:00.991Z,1.58
2023-04-05T06:35:27.429Z,1.65
2023-04-05T06:37:53.830Z,1.81
2023-04-05T06:40:20.579Z,1.96
2023-04-05T06:42:47.041Z,1.99
2023-04-05T06:45:19.038Z,2.11
2023-04-05T06:47:45.516Z,2.18
2023-04-05T06:50:11.936Z,2.37
2023-04-05T06:52:39.229Z,2.46
2023-04-05T06:55:06.447Z,2.45
2023-04-05T06:57:32.924Z,2.63
2023-04-05T06:59:59.337Z,2.91
2023-04-05T07:02:25.978Z,3.23
2023-04-05T07:04:53.257Z,3.34
2023-04-05T07:07:19.701Z,3.37
2023-04-05T07:09:46.084Z,3.35
2023-04-05T07:12:12.501Z,3.37
2023-04-05T07:14:38.877Z,3.51
2023-04-05T07:17:06.370Z,3.57
2023-04-05T07:19:33.511Z,3.70
2023-04-05T07:22:00.179Z,3.77
2023-04-05T07:24:26.591Z,3.83
2023-04-05T07:26:53.232Z,3.89
2023-04-05T07:29:19.627Z,3.83
2023-04-05T07:31:46.035Z,4.00
2023-04-05T07:34:13.224Z,4.08
2023-04-05T07:36:39.660Z,4.06
2023-04-05T07:39:06.159Z,3.97
2023-04-05T07:41:32.936Z,4.14
2023-04-05T07:43:59.343Z,3.98
2023-04-05T07:46:27.221Z,4.07
2023-04-05T07:48:54.450Z,4.29
2023-04-05T07:51:20.923Z,4.46
2023-04-05T07:53:47.833Z,4.51
2023-04-05T07:56:14.424Z,4.53
2023-04-05T07:58:41.061Z,4.49
2023-04-05T08:01:09.179Z,4.86
2023-04-05T08:03:37.052Z,5.12
2023-04-05T08:06:13.681Z,5.25
2023-04-05T08:08:41.144Z,5.46
2023-04-05T08:11:08.039Z,6.01
2023-04-05T08:13:34.469Z,5.90
2023-04-05T08:16:02.247Z,5.75
2023-04-05T08:18:28.716Z,6.15
2023-04-05T08:20:56.332Z,6.42
2023-04-05T08:23:23.033Z,6.36
2023-04-05T08:25:49.881Z,6.53
2023-04-05T08:28:16.478Z,6.62
2023-04-05T08:30:43.248Z,6.49
2023-04-05T08:33:09.987Z,6.84
2023-04-05T08:35:37.198Z,6.99
2023-04-05T08:38:04.737Z,7.13
2023-04-05T08:40:41.776Z,7.50
2023-04-05T08:43:28.959Z,7.35
2023-04-05T08:45:57.244Z,7.62
2023-04-05T08:48:23.661Z,7.97
2023-04-05T08:50:51.704Z,7.85
2023-04-05T08:53:18.789Z,8.02
2023-04-05T08:55:50.080Z,8.14
2023-04-05T08:58:17.157Z,7.89
2023-04-05T09:00:44.440Z,8.38
2023-04-05T09:03:17.696Z,8.64
2023-04-05T09:05:49.800Z,8.62
2023-04-05T09:08:16.497Z,8.69
2023-04-05T09:10:43.144Z,8.54
2023-04-05T09:13:10.294Z,8.64
2023-04-05T09:15:37.640Z,8.68
2023-04-05T09:18:12.311Z,9.09
2023-04-05T09:20:45.855Z,9.17
2023-04-05T09:23:12.258Z,9.09
2023-04-05T09:25:40.870Z,9.14
2023-04-05T09:28:07.606Z,9.07
2023-04-05T09:30:35.657Z,9.15
2023-04-05T09:33:03.408Z,9.24
2023-04-05T09:35:31.701Z,9.00
2023-04-05T09:37:59.229Z,9.43
2023-04-05T09:40:44.260Z,9.56
2023-04-05T09:43:12.316Z,9.76
2023-04-05T09:45:41.559Z,9.68
2023-04-05T09:48:09.434Z,9.52
2023-04-05T09:50:36.634Z,10.10
2023-04-05T09:53:15.735Z,9.39
2023-04-05T09:55:43.821Z,9.96
2023-04-05T09:58:19.447Z,10.15
2023-04-05T10:00:59.906Z,10.32
2023-04-05T10:03:46.498Z,10.33
2023-04-05T10:06:12.950Z,10.23
2023-04-05T10:08:39.378Z,10.02
2023-04-05T10:11:06.256Z,9.63
2023-04-05T10:13:34.028Z,9.57
2023-04-05T10:16:01.878Z,9.71
2023-04-05T10:18:39.167Z,9.44
2023-04-05T10:21:06.479Z,9.56
2023-04-05T10:23:35.049Z,9.80
2023-04-05T10:26:13.041Z,9.87
2023-04-05T10:28:47.131Z,9.76
2023-04-05T10:34:06.610Z,9.99
2023-04-05T10:36:50.539Z,10.22
2023-04-05T10:39:23.214Z,10.21
2023-04-05T10:41:54.090Z,10.25
2023-04-05T10:44:26.227Z,10.24
2023-04-05T10:46:55.290Z,10.17
2023-04-05T10:49:39.539Z,10.17
2023-04-05T10:52:06.800Z,10.26
2023-04-05T10:54:37.248Z,10.15
2023-04-05T10:57:09.943Z,10.10
2023-04-05T10:59:42.319Z,10.06
2023-04-05T11:02:09.300Z,9.97
2023-04-05T11:04:36.787Z,9.97
2023-04-05T11:07:15.639Z,9.98
2023-04-05T11:10:02.429Z,9.97
2023-04-05T11:12:47.308Z,9.92
2023-04-05T11:15:43.071Z,9.81
2023-04-05T11:18:22.218Z,9.71
2023-04-05T11:20:53.184Z,9.71
2023-04-05T11:23:20.678Z,9.62
2023-04-05T11:25:51.614Z,9.71
2023-04-05T11:28:26.149Z,9.50
2023-04-05T11:30:57.188Z,9.39
2023-04-05T11:33:56.789Z,9.27
2023-04-05T11:36:36.167Z,9.26
2023-04-05T11:39:23.933Z,8.96
2023-04-05T11:42:05.867Z,8.97
2023-04-05T11:44:52.649Z,8.51
2023-04-05T11:47:23.213Z,8.69
2023-04-05T11:49:50.972Z,8.63
2023-04-05T11:52:19.779Z,8.52
2023-04-05T11:54:46.827Z,8.55
2023-04-05T11:57:16.066Z,8.36
2023-04-05T11:59:43.150Z,8.64
2023-04-05T12:02:09.572Z,8.81
2023-04-05T12:04:37.082Z,8.70
2023-04-05T12:07:16.320Z,8.75
2023-04-05T12:10:02.927Z,8.65
2023-04-05T12:12:38.240Z,8.83
2023-04-05T12:15:08.265Z,8.54
2023-04-05T12:17:44.383Z,8.79
2023-04-05T12:20:13.276Z,8.82
2023-04-05T12:22:42.188Z,8.55
2023-04-05T12:25:09.404Z,8.56
2023-04-05T12:27:35.920Z,8.48
2023-04-05T12:30:20.358Z,8.52
2023-04-05T12:32:47.913Z,8.58
2023-04-05T12:35:32.606Z,8.80
2023-04-05T12:38:01.082Z,8.80
2023-04-05T12:40:27.818Z,9.10
2023-04-05T12:43:02.171Z,9.01
2023-04-05T12:45:28.654Z,8.70
2023-04-05T12:47:59.713Z,8.88
2023-04-05T12:50:27.798Z,8.73
2023-04-05T12:52:55.666Z,8.58
2023-04-05T12:55:22.360Z,8.56
2023-04-05T12:57:50.582Z,8.77
2023-04-05T13:00:17.683Z,8.70
2023-04-05T13:02:44.162Z,8.91
2023-04-05T13:05:10.737Z,8.62
2023-04-05T13:07:37.121Z,8.36
2023-04-05T13:10:03.676Z,8.22
2023-04-05T13:12:30.086Z,8.27
2023-04-05T13:14:56.484Z,8.26
2023-04-05T13:17:22.965Z,8.21
2023-04-05T13:19:49.429Z,8.47
2023-04-05T13:22:15.980Z,8.70
2023-04-05T13:24:42.474Z,8.45
2023-04-05T13:27:08.884Z,8.47
2023-04-05T13:29:35.414Z,8.24
2023-04-05T13:32:01.873Z,8.30
2023-04-05T13:34:28.346Z,8.14
2023-04-05T13:36:54.749Z,8.23
2023-04-05T13:39:21.504Z,8.25
2023-04-05T13:41:47.953Z,8.33
2023-04-05T13:44:14.397Z,8.44
2023-04-05T13:46:41.041Z,8.48
2023-04-05T13:49:07.535Z,8.37
2023-04-05T13:51:35.648Z,8.26
2023-04-05T13:54:02.106Z,8.38
2023-04-05T13:56:28.511Z,8.42
2023-04-05T13:58:55.143Z,8.65
2023-04-05T14:01:21.586Z,8.86
2023-04-05T14:03:48.253Z,8.67
2023-04-05T14:06:14.839Z,9.04
2023-04-05T14:08:41.255Z,9.22
2023-04-05T14:11:07.949Z,9.24
2023-04-05T14:13:34.981Z,8.99
2023-04-05T14:16:01.660Z,9.06
2023-04-05T14:18:28.098Z,8.92
2023-04-05T14:20:56.429Z,9.06
2023-04-05T14:23:23.377Z,9.23
2023-04-05T14:25:49.775Z,9.36
2023-04-05T14:28:16.198Z,9.71
2023-04-05T14:30:43.099Z,10.14
2023-04-05T14:33:09.698Z,10.19
2023-04-05T14:35:36.183Z,10.12
2023-04-05T14:38:02.610Z,10.13
2023-04-05T14:40:29.041Z,10.15
2023-04-05T14:42:55.448Z,9.94
2023-04-05T14:45:23.308Z,9.90
2023-04-05T14:47:49.781Z,10.10
2023-04-05T14:50:16.353Z,9.99
2023-04-05T14:52:42.760Z,10.07
2023-04-05T14:55:09.377Z,10.00
2023-04-05T14:57:35.882Z,10.07
2023-04-05T15:00:02.315Z,9.98
2023-04-05T15:02:28.898Z,10.00
2023-04-05T15:04:55.385Z,10.02
2023-04-05T15:07:21.787Z,9.97
2023-04-05T15:09:48.802Z,9.78
2023-04-05T15:12:15.313Z,9.64
2023-04-05T15:14:41.705Z,9.54
2023-04-05T15:17:08.194Z,9.38
2023-04-05T15:19:36.045Z,9.31
2023-04-05T15:22:02.578Z,9.33
2023-04-05T15:24:29.131Z,9.31
2023-04-05T15:27:01.809Z,9.40
2023-04-05T15:29:32.025Z,9.29
2023-04-05T15:31:59.852Z,9.35
2023-04-05T15:34:27.322Z,9.47
2023-04-05T15:36:54.329Z,9.54
2023-04-05T15:39:21.612Z,9.55
2023-04-05T15:41:48.475Z,9.53
2023-04-05T15:44:15.374Z,9.69
2023-04-05T15:46:42.123Z,9.60
2023-04-05T15:49:11.574Z,9.67
2023-04-05T15:51:39.651Z,9.49
2023-04-05T15:54:06.090Z,9.50
2023-04-05T15:56:32.514Z,9.67
2023-04-05T15:58:59.019Z,9.65
2023-04-05T16:01:25.560Z,9.61
2023-04-05T16:03:52.658Z,9.45
2023-04-05T16:06:19.214Z,9.50
2023-04-05T16:08:45.627Z,9.55
2023-04-05T16:11:12.018Z,9.58
2023-04-05T16:13:38.457Z,9.65
2023-04-05T16:16:05.213Z,9.71
2023-04-05T16:18:31.792Z,9.68
2023-04-05T16:20:58.719Z,9.61
2023-04-05T16:23:25.190Z,9.48
2023-04-05T16:25:51.921Z,9.54
2023-04-05T16:28:18.317Z,9.65
2023-04-05T16:30:46.364Z,9.68
2023-04-05T16:33:14.021Z,9.62
2023-04-05T16:35:40.432Z,9.58
2023-04-05T16:38:07.342Z,9.63
2023-04-05T16:40:33.974Z,9.59
2023-04-05T16:43:00.383Z,9.58
2023-04-05T16:45:28.609Z,9.49
2023-04-05T16:47:55.305Z,9.50
2023-04-05T16:50:21.746Z,9.47
2023-04-05T16:52:48.142Z,9.44
2023-04-05T16:55:14.529Z,9.38
2023-04-05T16:57:40.976Z,9.36
2023-04-05T17:00:08.125Z,9.32
2023-04-05T17:02:34.570Z,9.23
2023-04-05T17:05:01.040Z,9.19
2023-04-05T17:07:27.451Z,9.21
2023-04-05T17:09:53.887Z,9.20
2023-04-05T17:12:20.353Z,9.00
2023-04-05T17:14:46.741Z,9.05
2023-04-05T17:17:13.124Z,9.00
2023-04-05T17:19:39.549Z,8.97
2023-04-05T17:22:05.976Z,8.91
2023-04-05T17:24:38.520Z,8.97
2023-04-05T17:27:04.956Z,8.80
2023-04-05T17:29:31.408Z,8.89
2023-04-05T17:31:57.844Z,8.81
2023-04-05T17:34:24.253Z,8.85
2023-04-05T17:36:50.663Z,8.64
2023-04-05T17:39:17.072Z,8.44
2023-04-05T17:41:45.588Z,8.47
2023-04-05T17:44:12.519Z,8.35
2023-04-05T17:46:44.580Z,8.30
2023-04-05T17:49:15.280Z,8.07
2023-04-05T17:51:42.008Z,8.01
2023-04-05T17:54:08.567Z,7.98
2023-04-05T17:56:34.945Z,8.04
2023-04-05T17:59:01.409Z,8.03
2023-04-05T18:01:27.860Z,7.81
2023-04-05T18:03:54.359Z,7.79
2023-04-05T18:06:20.839Z,7.80
2023-04-05T18:08:47.518Z,7.71
2023-04-05T18:11:13.908Z,7.59
2023-04-05T18:13:40.315Z,7.53
2023-04-05T18:16:06.820Z,7.53
2023-04-05T18:18:33.321Z,7.47
2023-04-05T18:21:01.831Z,7.47
2023-04-05T18:23:28.373Z,7.45
2023-04-05T18:25:54.882Z,7.38
2023-04-05T18:28:23.499Z,7.36
2023-04-05T18:30:51.071Z,7.30
2023-04-05T18:33:17.687Z,7.26
2023-04-05T18:35:49.443Z,7.28
2023-04-05T18:38:16.139Z,7.18
2023-04-05T18:40:43.145Z,7.29
2023-04-05T18:43:09.549Z,7.27
2023-04-05T18:45:39.170Z,7.27
2023-04-05T18:48:06.122Z,7.28
2023-04-05T18:50:32.600Z,7.37
2023-04-05T18:52:59.016Z,7.31
2023-04-05T18:55:25.678Z,7.22
2023-04-05T18:57:52.067Z,7.21
2023-04-05T19:00:18.610Z,7.12
2023-04-05T19:02:45.125Z,7.09
2023-04-05T19:05:11.577Z,7.08
2023-04-05T19:07:37.969Z,6.97
2023-04-05T19:10:04.703Z,7.01
2023-04-05T19:12:31.107Z,6.97
2023-04-05T19:14:57.557Z,7.00
2023-04-05T19:17:23.983Z,7.02
2023-04-05T19:19:50.566Z,6.95
2023-04-05T19:22:16.963Z,7.00
2023-04-05T19:24:43.362Z,7.09
2023-04-05T19:27:09.792Z,7.01
2023-04-05T19:29:36.209Z,7.06
2023-04-05T19:32:02.750Z,6.96
2023-04-05T19:34:30.470Z,6.90
2023-04-05T19:36:58.787Z,6.94
2023-04-05T19:39:25.516Z,6.87
2023-04-05T19:41:52.336Z,6.87
2023-04-05T19:44:37.195Z,6.85
2023-04-05T19:47:08.932Z,6.86
2023-04-05T19:49:42.264Z,6.83
2023-04-05T19:52:11.666Z,6.75
2023-04-05T19:54:39.378Z,6.75
2023-04-05T19:57:06.905Z,6.71
2023-04-05T19:59:34.635Z,6.72
2023-04-05T20:02:02.745Z,6.67
2023-04-05T20:04:29.259Z,6.58
2023-04-05T20:06:56.006Z,6.59
2023-04-05T20:09:24.785Z,6.58
2023-04-05T20:11:56.116Z,6.51
2023-04-05T20:14:27.856Z,6.52
2023-04-05T20:16:55.956Z,6.46
2023-04-05T20:19:30.929Z,6.44
2023-04-05T20:22:01.543Z,6.37
2023-04-05T20:24:29.453Z,6.35
2023-04-05T20:26:56.855Z,6.33
2023-04-05T20:29:27.594Z,6.30
2023-04-05T20:31:54.635Z,6.27
2023-04-05T20:34:31.415Z,6.14
2023-04-05T20:37:00.555Z,6.07
2023-04-05T20:39:27.677Z,5.98
2023-04-05T20:41:55.559Z,6.10
2023-04-05T20:44:22.774Z,5.91
2023-04-05T20:46:54.657Z,5.86
2023-04-05T20:49:22.195Z,5.89
2023-04-05T20:51:50.540Z,5.81
2023-04-05T20:54:17.956Z,5.83
2023-04-05T20:56:44.392Z,5.70
2023-04-05T20:59:11.516Z,5.66
2023-04-05T21:01:38.242Z,5.55
2023-04-05T21:04:05.865Z,5.48
2023-04-05T21:06:34.142Z,5.46
2023-04-05T21:09:01.078Z,5.43
2023-04-05T21:11:27.574Z,5.38
2023-04-05T21:13:54.278Z,5.61
2023-04-05T21:16:20.748Z,5.41
2023-04-05T21:18:47.166Z,5.47
2023-04-05T21:21:13.605Z,5.46
2023-04-05T21:23:40.008Z,5.44
2023-04-05T21:26:06.435Z,5.39
2023-04-05T21:28:33.368Z,5.39
2023-04-05T21:30:59.764Z,5.32
2023-04-05T21:33:26.163Z,5.38
2023-04-05T21:35:52.569Z,5.34
2023-04-05T21:38:19.019Z,5.38
2023-04-05T21:40:45.495Z,5.33
2023-04-05T21:43:12.747Z,5.26
2023-04-05T21:45:39.164Z,5.18
2023-04-05T21:48:06.099Z,5.12
2023-04-05T21:50:32.592Z,5.07
2023-04-05T21:52:59.005Z,5.03
2023-04-05T21:55:25.411Z,4.97
2023-04-05T21:57:52.071Z,4.91
2023-04-05T22:00:18.768Z,4.90
2023-04-05T22:02:46.650Z,4.85
2023-04-05T22:05:19.601Z,4.84
2023-04-05T22:07:52.490Z,4.76
2023-04-05T22:10:19.220Z,4.75
2023-04-05T22:12:45.817Z,4.75
2023-04-05T22:15:12.264Z,4.74
2023-04-05T22:17:38.726Z,4.67
2023-04-05T22:20:05.859Z,4.66
2023-04-05T22:22:32.260Z,4.61
2023-04-05T22:24:58.683Z,4.56
2023-04-05T22:27:25.091Z,4.50
2023-04-05T22:29:52.784Z,4.48
2023-04-05T22:32:19.243Z,4.40
2023-04-05T22:34:45.667Z,4.41
2023-04-05T22:37:12.167Z,4.35
2023-04-05T22:39:38.786Z,4.37
2023-04-05T22:42:05.565Z,4.32
2023-04-05T22:44:32.062Z,4.32
2023-04-05T22:46:58.486Z,4.30
2023-04-05T22:49:24.887Z,4.24
2023-04-05T22:51:51.282Z,4.21
2023-04-05T22:54:17.668Z,4.15
2023-04-05T22:56:44.054Z,4.13
2023-04-05T22:59:10.741Z,4.10
2023-04-05T23:01:37.485Z,4.00
2023-04-05T23:04:03.922Z,4.00
2023-04-05T23:06:30.990Z,3.98
2023-04-05T23:08:57.428Z,3.95
2023-04-05T23:11:23.819Z,3.93
2023-04-05T23:13:50.504Z,3.94
2023-04-05T23:16:17.062Z,3.87
2023-04-05T23:18:43.538Z,3.90
2023-04-05T23:21:09.953Z,3.85
2023-04-05T23:23:36.351Z,3.85
2023-04-05T23:26:02.800Z,3.90
2023-04-05T23:28:29.179Z,3.78
2023-04-05T23:30:55.572Z,3.72
2023-04-05T23:33:21.971Z,3.69
2023-04-05T23:35:48.953Z,3.67
2023-04-05T23:38:15.521Z,3.66
2023-04-05T23:40:41.928Z,3.62
2023-04-05T23:43:08.358Z,3.63
2023-04-05T23:45:34.792Z,3.62
2023-04-05T23:48:01.288Z,3.55
2023-04-05T23:50:27.746Z,3.53
2023-04-05T23:52:54.368Z,3.47
2023-04-05T23:55:21.530Z,3.44
2023-04-05T23:57:48.036Z,3.40
